Time,TemperatureF,DewpointF,PressureIn,WindDirection,WindDirectionDegrees,WindSpeedMPH,WindSpeedGustMPH,Humidity,HourlyPrecipIn,Conditions,Clouds,dailyrainin,SoftwareType,DateUTC
2013-04-05 00:06:00,39.5,20.0,29.89,SSW,194,16.0,-999.0,46,-99.99,,,0.00,weatherlink.com 1.10,2013-04-05 06:06:00,
2013-04-05 00:22:00,38.8,20.0,29.88,SSW,193,17.0,-999.0,48,-99.99,,,0.00,weatherlink.com 1.10,2013-04-05 06:22:00,
2013-04-05 00:36:00,38.5,20.0,29.87,South,185,18.0,-999.0,48,-99.99,,,0.00,weatherlink.com 1.10,2013-04-05 06:36:00,
2013-04-05 00:51:00,38.7,19.0,29.87,SSW,204,18.0,-999.0,46,-99.99,,,0.00,weatherlink.com 1.10,2013-04-05 06:51:00,
2013-04-05 01:07:00,38.3,20.0,29.87,SSW,211,19.0,-999.0,47,-99.99,,,0.00,weatherlink.com 1.10,2013-04-05 07:07:00,
2013-04-05 01:22:00,38.8,18.0,29.86,SSW,200,11.0,-999.0,43,-99.99,,,0.00,weatherlink.com 1.10,2013-04-05 07:22:00,
2013-04-05 01:37:00,38.0,18.0,29.86,SSW,192,15.0,-999.0,45,-99.99,,,0.00,weatherlink.com 1.10,2013-04-05 07:37:00,
2013-04-05 01:52:00,36.7,19.0,29.85,SSW,207,11.0,-999.0,49,-99.99,,,0.00,weatherlink.com 1.10,2013-04-05 07:52:00,
2013-04-05 02:07:00,37.0,19.0,29.84,SW,214,10.0,-999.0,48,-99.99,,,0.00,weatherlink.com 1.10,2013-04-05 08:07:00,
2013-04-05 02:38:00,37.1,18.0,29.81,South,183,14.0,-999.0,47,-99.99,,,0.00,weatherlink.com 1.10,2013-04-05 08:38:00,
2013-04-05 02:53:00,36.3,18.0,29.80,SSW,200,21.0,-999.0,48,-99.99,,,0.00,weatherlink.com 1.10,2013-04-05 08:53:00,
2013-04-05 03:08:00,37.0,18.0,29.80,SW,221,21.0,-999.0,47,-99.99,,,0.00,weatherlink.com 1.10,2013-04-05 09:08:00,
2013-04-05 03:23:00,37.3,18.0,29.79,SSW,203,17.0,-999.0,46,-99.99,,,0.00,weatherlink.com 1.10,2013-04-05 09:23:00,
2013-04-05 03:39:00,37.5,18.0,29.78,SSW,203,22.0,-999.0,46,-99.99,,,0.00,weatherlink.com 1.10,2013-04-05 09:39:00,
2013-04-05 03:55:00,37.1,18.0,29.78,SSW,192,23.0,-999.0,47,-99.99,,,0.00,weatherlink.com 1.10,2013-04-05 09:55:00,
2013-04-05 04:24:00,37.5,18.0,29.78,SSW,201,16.0,-999.0,46,-99.99,,,0.00,weatherlink.com 1.10,2013-04-05 10:24:00,
2013-04-05 04:40:00,37.6,18.0,29.77,South,191,15.0,-999.0,46,-99.99,,,0.00,weatherlink.com 1.10,2013-04-05 10:40:00,
2013-04-05 04:54:00,37.8,18.0,29.77,South,189,11.0,-999.0,45,-99.99,,,0.00,weatherlink.com 1.10,2013-04-05 10:54:00,
2013-04-05 05:09:00,37.3,19.0,29.77,South,190,15.0,-999.0,47,-99.99,,,0.00,weatherlink.com 1.10,2013-04-05 11:09:00,
2013-04-05 05:25:00,37.1,19.0,29.76,SSW,193,20.0,-999.0,48,-99.99,,,0.00,weatherlink.com 1.10,2013-04-05 11:25:00,
2013-04-05 05:40:00,36.6,19.0,29.76,South,186,15.0,-999.0,49,-99.99,,,0.00,weatherlink.com 1.10,2013-04-05 11:40:00,
2013-04-05 05:55:00,36.5,19.0,29.75,SSW,197,14.0,-999.0,49,-99.99,,,0.00,weatherlink.com 1.10,2013-04-05 11:55:00,
2013-04-05 06:10:00,36.5,19.0,29.75,SSW,205,12.0,-999.0,49,-99.99,,,0.00,weatherlink.com 1.10,2013-04-05 12:10:00,
2013-04-05 06:25:00,36.3,19.0,29.76,SW,230,10.0,-999.0,49,-99.99,,,0.00,weatherlink.com 1.10,2013-04-05 12:25:00,
2013-04-05 06:40:00,36.3,19.0,29.76,SSW,198,14.0,-999.0,49,-99.99,,,0.00,weatherlink.com 1.10,2013-04-05 12:40:00,
2013-04-05 06:56:00,36.6,18.0,29.75,SSW,196,14.0,-999.0,48,-99.99,,,0.00,weatherlink.com 1.10,2013-04-05 12:56:00,
2013-04-05 07:11:00,36.1,18.0,29.75,SSW,196,12.0,-999.0,49,-99.99,,,0.00,weatherlink.com 1.10,2013-04-05 13:11:00,
2013-04-05 07:26:00,36.7,19.0,29.74,SSW,193,22.0,-999.0,48,-99.99,,,0.00,weatherlink.com 1.10,2013-04-05 13:26:00,
2013-04-05 07:41:00,36.9,19.0,29.73,South,182,19.0,-999.0,48,-99.99,,,0.00,weatherlink.com 1.10,2013-04-05 13:41:00,
2013-04-05 07:56:00,37.1,18.0,29.73,South,190,16.0,-999.0,47,-99.99,,,0.00,weatherlink.com 1.10,2013-04-05 13:56:00,
2013-04-05 08:11:00,37.7,18.0,29.73,SSW,207,14.0,-999.0,46,-99.99,,,0.00,weatherlink.com 1.10,2013-04-05 14:11:00,
2013-04-05 08:27:00,38.3,19.0,29.73,South,181,17.0,-999.0,45,-99.99,,,0.00,weatherlink.com 1.10,2013-04-05 14:27:00,
2013-04-05 08:42:00,39.1,19.0,29.73,South,181,15.0,-999.0,44,-99.99,,,0.00,weatherlink.com 1.10,2013-04-05 14:42:00,
2013-04-05 08:57:00,40.1,19.0,29.72,South,186,19.0,-999.0,43,-99.99,,,0.00,weatherlink.com 1.10,2013-04-05 14:57:00,
2013-04-05 09:12:00,41.0,20.0,29.71,SSW,203,11.0,-999.0,43,-99.99,,,0.00,weatherlink.com 1.10,2013-04-05 15:12:00,
2013-04-05 09:27:00,40.9,20.0,29.71,SW,220,12.0,-999.0,44,-99.99,,,0.00,weatherlink.com 1.10,2013-04-05 15:27:00,
2013-04-05 09:42:00,42.2,21.0,29.71,South,190,10.0,-999.0,43,-99.99,,,0.00,weatherlink.com 1.10,2013-04-05 15:42:00,
2013-04-05 09:58:00,42.6,21.0,29.69,SSW,210,12.0,-999.0,42,-99.99,,,0.00,weatherlink.com 1.10,2013-04-05 15:58:00,
2013-04-05 10:13:00,42.4,21.0,29.68,SSE,165,18.0,-999.0,42,-99.99,,,0.00,weatherlink.com 1.10,2013-04-05 16:13:00,
2013-04-05 10:28:00,44.3,21.0,29.68,South,181,15.0,-999.0,39,-99.99,,,0.00,weatherlink.com 1.10,2013-04-05 16:28:00,
2013-04-05 10:43:00,44.1,20.0,29.67,South,180,23.0,-999.0,38,-99.99,,,0.00,weatherlink.com 1.10,2013-04-05 16:43:00,
2013-04-05 10:58:00,45.0,19.0,29.67,South,169,17.0,-999.0,36,-99.99,,,0.00,weatherlink.com 1.10,2013-04-05 16:58:00,
2013-04-05 11:44:00,43.9,21.0,29.65,SSW,201,18.0,-999.0,41,-99.99,,,0.00,weatherlink.com 1.10,2013-04-05 17:44:00,
2013-04-05 11:59:00,41.9,21.0,29.65,SW,223,25.0,-999.0,43,-99.99,,,0.00,weatherlink.com 1.10,2013-04-05 17:59:00,
2013-04-05 12:14:00,41.8,22.0,29.64,SSE,167,32.0,-999.0,45,-99.99,,,0.00,weatherlink.com 1.10,2013-04-05 18:14:00,
2013-04-05 12:29:00,41.8,23.0,29.63,SW,223,26.0,-999.0,47,-99.99,,,0.00,weatherlink.com 1.10,2013-04-05 18:29:00,
2013-04-05 12:44:00,41.8,23.0,29.63,South,171,17.0,-999.0,47,-99.99,,,0.00,weatherlink.com 1.10,2013-04-05 18:44:00,
2013-04-05 13:00:00,42.1,23.0,29.62,South,184,21.0,-999.0,46,-99.99,,,0.00,weatherlink.com 1.10,2013-04-05 19:00:00,
2013-04-05 13:15:00,43.5,22.0,29.61,SW,219,22.0,-999.0,42,-99.99,,,0.00,weatherlink.com 1.10,2013-04-05 19:15:00,
2013-04-05 13:30:00,45.2,23.0,29.61,South,191,16.0,-999.0,42,-99.99,,,0.00,weatherlink.com 1.10,2013-04-05 19:30:00,
2013-04-05 13:45:00,45.8,23.0,29.59,South,183,15.0,-999.0,41,-99.99,,,0.00,weatherlink.com 1.10,2013-04-05 19:45:00,
2013-04-05 14:00:00,45.0,22.0,29.59,WSW,256,13.0,-999.0,40,-99.99,,,0.00,weatherlink.com 1.10,2013-04-05 20:00:00,
2013-04-05 14:16:00,44.9,22.0,29.58,SSW,211,23.0,-999.0,40,-99.99,,,0.00,weatherlink.com 1.10,2013-04-05 20:16:00,
2013-04-05 14:32:00,45.1,22.0,29.57,SSW,196,17.0,-999.0,40,-99.99,,,0.00,weatherlink.com 1.10,2013-04-05 20:32:00,
2013-04-05 14:46:00,45.1,23.0,29.56,SSE,166,24.0,-999.0,41,-99.99,,,0.00,weatherlink.com 1.10,2013-04-05 20:46:00,
2013-04-05 15:47:00,44.9,23.0,29.53,South,183,17.0,-999.0,42,-99.99,,,0.00,weatherlink.com 1.10,2013-04-05 21:47:00,
2013-04-05 16:02:00,45.2,26.0,29.55,SSW,211,15.0,-999.0,48,-99.99,,,0.00,weatherlink.com 1.10,2013-04-05 22:02:00,
2013-04-05 16:17:00,43.8,31.0,29.55,SW,228,9.0,-999.0,60,-99.99,,,0.00,weatherlink.com 1.10,2013-04-05 22:17:00,
2013-04-05 16:32:00,42.8,30.0,29.54,SW,220,16.0,-999.0,60,-99.99,,,0.00,weatherlink.com 1.10,2013-04-05 22:32:00,
2013-04-05 16:47:00,42.9,30.0,29.56,WSW,238,15.0,-999.0,61,-99.99,,,0.00,weatherlink.com 1.10,2013-04-05 22:47:00,
2013-04-05 17:04:00,40.6,29.0,29.56,SW,224,11.0,-999.0,64,-99.99,,,0.00,weatherlink.com 1.10,2013-04-05 23:04:00,
2013-04-05 17:18:00,38.2,32.0,29.56,WSW,240,10.0,-999.0,78,-99.99,,,0.00,weatherlink.com 1.10,2013-04-05 23:18:00,
2013-04-05 17:33:00,37.0,32.0,29.56,WSW,243,10.0,-999.0,82,-99.99,,,0.00,weatherlink.com 1.10,2013-04-05 23:33:00,
2013-04-05 17:48:00,34.8,31.0,29.57,West,280,8.0,-999.0,87,-99.99,,,0.00,weatherlink.com 1.10,2013-04-05 23:48:00,
2013-04-05 18:04:00,32.3,29.0,29.59,WNW,298,12.0,-999.0,88,-99.99,,,0.00,weatherlink.com 1.10,2013-04-06 00:04:00,
2013-04-05 18:19:00,31.2,29.0,29.60,WSW,238,16.0,-999.0,90,-99.99,,,0.00,weatherlink.com 1.10,2013-04-06 00:19:00,
2013-04-05 18:34:00,30.0,28.0,29.60,West,269,17.0,-999.0,93,-99.99,,,0.00,weatherlink.com 1.10,2013-04-06 00:34:00,
2013-04-05 18:49:00,29.8,28.0,29.60,WSW,255,8.0,-999.0,94,-99.99,,,0.00,weatherlink.com 1.10,2013-04-06 00:49:00,
2013-04-05 19:04:00,29.8,28.0,29.58,SW,232,10.0,-999.0,94,-99.99,,,0.00,weatherlink.com 1.10,2013-04-06 01:04:00,
2013-04-05 19:19:00,29.7,29.0,29.58,WSW,244,20.0,-999.0,95,-99.99,,,0.00,weatherlink.com 1.10,2013-04-06 01:19:00,
2013-04-05 19:34:00,29.3,28.0,29.57,SW,220,9.0,-999.0,95,-99.99,,,0.00,weatherlink.com 1.10,2013-04-06 01:34:00,
2013-04-05 19:50:00,29.1,28.0,29.59,WSW,248,12.0,-999.0,95,-99.99,,,0.00,weatherlink.com 1.10,2013-04-06 01:50:00,
2013-04-05 20:05:00,29.0,28.0,29.59,SW,233,10.0,-999.0,94,-99.99,,,0.00,weatherlink.com 1.10,2013-04-06 02:05:00,
2013-04-05 20:20:00,29.1,28.0,29.62,SSW,213,8.0,-999.0,94,-99.99,,,0.00,weatherlink.com 1.10,2013-04-06 02:20:00,
2013-04-05 20:35:00,28.9,27.0,29.64,West,263,4.0,-999.0,94,-99.99,,,0.00,weatherlink.com 1.10,2013-04-06 02:35:00,
2013-04-05 20:50:00,28.9,27.0,29.66,WSW,242,3.0,-999.0,94,-99.99,,,0.00,weatherlink.com 1.10,2013-04-06 02:50:00,
2013-04-05 21:36:00,29.2,28.0,29.65,SW,236,13.0,-999.0,94,-99.99,,,0.00,weatherlink.com 1.10,2013-04-06 03:36:00,
2013-04-05 21:51:00,29.0,28.0,29.68,SW,232,20.0,-999.0,94,-99.99,,,0.00,weatherlink.com 1.10,2013-04-06 03:51:00,
2013-04-05 22:21:00,29.0,28.0,29.70,SW,214,13.0,-999.0,94,-99.99,,,0.00,weatherlink.com 1.10,2013-04-06 04:21:00,
2013-04-05 22:37:00,28.8,27.0,29.70,West,266,6.0,-999.0,94,-99.99,,,0.00,weatherlink.com 1.10,2013-04-06 04:37:00,
2013-04-05 22:52:00,28.4,27.0,29.69,WSW,247,14.0,-999.0,94,-99.99,,,0.00,weatherlink.com 1.10,2013-04-06 04:52:00,
2013-04-05 23:22:00,27.6,26.0,29.69,SW,225,15.0,-999.0,92,-99.99,,,0.00,weatherlink.com 1.10,2013-04-06 05:22:00,
2013-04-05 23:37:00,27.4,25.0,29.67,WSW,239,18.0,-999.0,91,-99.99,,,0.00,weatherlink.com 1.10,2013-04-06 05:37:00,
2013-04-05 23:52:00,26.9,25.0,29.68,WSW,257,11.0,-999.0,91,-99.99,,,0.00,weatherlink.com 1.10,2013-04-06 05:52:00,